createdAt,value
2023-04-26T00:02:49.554Z,99.90
2023-04-26T00:07:53.290Z,99.90
2023-04-26T00:12:56.573Z,99.90
2023-04-26T00:18:00.031Z,99.90
2023-04-26T00:23:03.649Z,99.90
2023-04-26T00:28:06.938Z,99.90
2023-04-26T00:33:10.174Z,99.90
2023-04-26T00:38:13.409Z,99.90
2023-04-26T00:43:16.971Z,99.90
2023-04-26T00:48:21.134Z,99.90
2023-04-26T00:53:24.694Z,99.90
2023-04-26T00:58:28.370Z,99.90
2023-04-26T01:03:31.918Z,99.90
2023-04-26T01:08:35.985Z,99.90
2023-04-26T01:13:40.907Z,99.90
2023-04-26T01:18:44.156Z,99.90
2023-04-26T01:23:47.409Z,99.90
2023-04-26T01:28:51.386Z,99.90
2023-04-26T01:33:54.948Z,99.90
2023-04-26T01:38:58.319Z,99.90
2023-04-26T01:44:01.789Z,99.90
2023-04-26T01:49:05.288Z,99.90
2023-04-26T01:54:08.546Z,99.90
2023-04-26T01:59:11.736Z,99.90
2023-04-26T02:04:14.988Z,99.90
2023-04-26T02:09:18.938Z,99.90
2023-04-26T02:14:22.076Z,99.90
2023-04-26T02:19:28.098Z,99.90
2023-04-26T02:24:33.064Z,99.90
2023-04-26T02:29:44.439Z,99.90
2023-04-26T02:34:48.310Z,99.90
2023-04-26T02:39:52.297Z,99.90
2023-04-26T02:44:55.972Z,99.90
2023-04-26T02:49:59.574Z,99.90
2023-04-26T02:55:04.965Z,99.90
2023-04-26T03:00:09.195Z,99.90
2023-04-26T03:05:12.509Z,99.90
2023-04-26T03:10:15.824Z,99.90
2023-04-26T03:15:19.145Z,99.90
2023-04-26T03:20:22.729Z,99.90
2023-04-26T03:25:25.984Z,99.90
2023-04-26T03:30:29.942Z,99.90
2023-04-26T03:35:33.244Z,99.90
2023-04-26T03:40:36.920Z,99.90
2023-04-26T03:45:40.079Z,99.90
2023-04-26T03:50:45.325Z,99.90
2023-04-26T03:55:48.698Z,99.90
2023-04-26T04:00:51.909Z,99.90
2023-04-26T04:05:55.506Z,99.90
2023-04-26T04:10:58.767Z,99.90
2023-04-26T04:16:02.051Z,99.90
2023-04-26T04:21:05.462Z,99.90
2023-04-26T04:26:09.336Z,99.90
2023-04-26T04:31:13.414Z,99.90
2023-04-26T04:36:19.255Z,99.90
2023-04-26T04:41:24.038Z,99.90
2023-04-26T04:46:27.199Z,99.90
2023-04-26T04:51:30.429Z,99.90
2023-04-26T04:56:34.074Z,99.90
2023-04-26T05:01:37.889Z,99.90
2023-04-26T05:06:41.557Z,99.90
2023-04-26T05:11:45.025Z,99.90
2023-04-26T05:16:49.040Z,99.90
2023-04-26T05:21:53.588Z,99.90
2023-04-26T05:27:01.686Z,99.90
2023-04-26T05:32:05.336Z,99.90
2023-04-26T05:37:08.929Z,99.90
2023-04-26T05:42:12.390Z,99.90
2023-04-26T05:47:15.818Z,99.90
2023-04-26T05:52:19.460Z,99.90
2023-04-26T05:57:22.879Z,99.90
2023-04-26T06:02:26.623Z,99.90
2023-04-26T06:07:30.126Z,99.90
2023-04-26T06:12:33.928Z,99.90
2023-04-26T06:17:37.275Z,99.90
2023-04-26T06:22:40.527Z,99.90
2023-04-26T06:27:43.803Z,99.90
2023-04-26T06:32:47.380Z,99.90
2023-04-26T06:37:50.620Z,99.90
2023-04-26T06:42:55.417Z,99.90
2023-04-26T06:48:01.060Z,99.90
2023-04-26T06:53:04.227Z,99.90
2023-04-26T06:58:07.462Z,99.90
2023-04-26T07:03:11.373Z,99.90
2023-04-26T07:08:15.099Z,99.90
2023-04-26T07:13:18.492Z,99.90
2023-04-26T07:18:21.788Z,99.90
2023-04-26T07:23:24.964Z,99.90
2023-04-26T07:28:28.426Z,99.90
2023-04-26T07:33:32.055Z,99.90
2023-04-26T07:38:36.017Z,99.90
2023-04-26T07:43:39.550Z,99.90
2023-04-26T07:48:42.819Z,99.90
2023-04-26T07:53:46.395Z,99.90
2023-04-26T07:58:49.660Z,99.90
2023-04-26T08:03:53.623Z,99.00
2023-04-26T08:08:58.875Z,97.90
2023-04-26T08:14:03.845Z,92.50
2023-04-26T08:19:07.207Z,95.30
2023-04-26T08:24:10.940Z,91.80
2023-04-26T08:29:15.376Z,93.20
2023-04-26T08:34:18.700Z,94.30
2023-04-26T08:39:22.240Z,95.60
2023-04-26T08:44:26.384Z,97.40
2023-04-26T08:49:37.855Z,95.10
2023-04-26T08:54:41.715Z,93.30
2023-04-26T08:59:45.156Z,96.30
2023-04-26T09:04:49.730Z,93.90
2023-04-26T09:09:55.402Z,95.10
2023-04-26T09:14:58.721Z,95.70
2023-04-26T09:20:07.212Z,96.20
2023-04-26T09:25:13.873Z,96.10
2023-04-26T09:30:19.004Z,96.20
2023-04-26T09:35:36.675Z,96.00
2023-04-26T09:40:45.672Z,96.40
2023-04-26T09:45:57.454Z,96.70
2023-04-26T09:51:12.705Z,96.10
2023-04-26T09:56:22.322Z,96.50
2023-04-26T10:01:27.136Z,96.30
2023-04-26T10:06:30.777Z,98.00
2023-04-26T10:11:35.901Z,94.60
2023-04-26T10:16:39.664Z,92.80
2023-04-26T10:21:44.517Z,93.20
2023-04-26T10:26:55.075Z,93.10
2023-04-26T10:32:04.748Z,91.60
2023-04-26T10:37:16.509Z,92.60
2023-04-26T10:42:27.016Z,91.10
2023-04-26T10:47:39.880Z,91.20
2023-04-26T10:53:04.563Z,92.00
2023-04-26T10:58:46.748Z,90.80
2023-04-26T11:03:59.471Z,91.10
2023-04-26T11:09:04.058Z,91.60
2023-04-26T11:14:07.831Z,91.40
2023-04-26T11:19:11.428Z,90.40
2023-04-26T11:24:17.655Z,88.40
2023-04-26T11:29:21.911Z,89.70
2023-04-26T11:34:39.689Z,89.90
2023-04-26T11:39:46.072Z,89.50
2023-04-26T11:44:52.353Z,90.10
2023-04-26T11:49:55.806Z,86.90
2023-04-26T11:55:04.688Z,87.00
2023-04-26T12:00:15.409Z,86.00
2023-04-26T12:05:26.550Z,84.50
2023-04-26T12:10:36.679Z,83.90
2023-04-26T12:15:39.987Z,87.10
2023-04-26T12:20:45.076Z,79.30
2023-04-26T12:25:56.595Z,81.70
2023-04-26T12:31:01.981Z,81.60
2023-04-26T12:36:13.025Z,81.20
2023-04-26T12:41:16.539Z,77.20
2023-04-26T12:46:19.868Z,75.50
2023-04-26T12:51:23.138Z,76.60
2023-04-26T12:56:26.449Z,73.10
2023-04-26T13:01:29.731Z,74.70
2023-04-26T13:06:33.107Z,75.50
2023-04-26T13:11:36.389Z,75.50
2023-04-26T13:16:44.163Z,77.70
2023-04-26T13:21:47.382Z,74.90
2023-04-26T13:26:50.695Z,77.30
2023-04-26T13:31:54.502Z,76.50
2023-04-26T13:36:58.394Z,75.20
2023-04-26T13:42:02.389Z,70.50
2023-04-26T13:47:06.743Z,71.20
2023-04-26T13:52:13.195Z,71.40
2023-04-26T13:57:16.844Z,71.30
2023-04-26T14:02:20.341Z,73.20
2023-04-26T14:07:24.410Z,72.30
2023-04-26T14:12:27.608Z,73.00
2023-04-26T14:17:30.909Z,72.60
2023-04-26T14:22:34.379Z,73.30
2023-04-26T14:27:39.778Z,72.90
2023-04-26T14:32:43.759Z,74.50
2023-04-26T14:37:47.499Z,73.40
2023-04-26T14:42:51.098Z,74.20
2023-04-26T14:47:54.806Z,72.30
2023-04-26T14:52:58.145Z,67.40
2023-04-26T14:58:01.817Z,58.40
2023-04-26T15:03:05.207Z,57.20
2023-04-26T15:08:08.541Z,55.10
2023-04-26T15:13:11.965Z,60.70
2023-04-26T15:18:15.188Z,63.70
2023-04-26T15:23:18.830Z,63.30
2023-04-26T15:28:22.585Z,55.10
2023-04-26T15:33:25.936Z,52.20
2023-04-26T15:38:29.363Z,51.90
2023-04-26T15:43:32.766Z,52.50
2023-04-26T15:48:36.994Z,54.90
2023-04-26T15:53:43.614Z,58.30
2023-04-26T15:58:48.641Z,61.70
2023-04-26T16:03:53.096Z,59.80
2023-04-26T16:08:57.085Z,58.10
2023-04-26T16:14:00.227Z,56.80
2023-04-26T16:19:03.469Z,58.80
2023-04-26T16:24:09.473Z,61.40
2023-04-26T16:29:13.754Z,65.10
2023-04-26T16:34:17.280Z,67.50
2023-04-26T16:39:21.797Z,69.90
2023-04-26T16:44:25.669Z,71.30
2023-04-26T16:49:29.348Z,71.90
2023-04-26T16:54:32.596Z,70.20
2023-04-26T16:59:35.887Z,69.30
2023-04-26T17:04:39.830Z,69.80
2023-04-26T17:09:43.399Z,70.50
2023-04-26T17:14:47.158Z,71.50
2023-04-26T17:19:51.256Z,72.50
2023-04-26T17:24:54.658Z,74.20
2023-04-26T17:29:58.548Z,75.00
2023-04-26T17:35:03.181Z,74.20
2023-04-26T17:40:08.812Z,73.60
2023-04-26T17:45:14.617Z,73.50
2023-04-26T17:50:19.448Z,74.40
2023-04-26T17:55:23.129Z,76.10
2023-04-26T18:00:27.590Z,77.00
2023-04-26T18:05:32.388Z,78.80
2023-04-26T18:10:36.598Z,80.00
2023-04-26T18:15:41.118Z,81.10
2023-04-26T18:20:45.386Z,82.00
2023-04-26T18:25:51.146Z,82.70
2023-04-26T18:30:58.974Z,83.60
2023-04-26T18:36:03.620Z,84.90
2023-04-26T18:41:07.325Z,85.60
2023-04-26T18:46:12.622Z,86.60
2023-04-26T18:51:18.769Z,87.70
2023-04-26T18:56:24.373Z,88.80
2023-04-26T19:01:31.127Z,89.60
2023-04-26T19:06:36.484Z,90.80
2023-04-26T19:11:40.807Z,91.50
2023-04-26T19:16:45.701Z,92.00
2023-04-26T19:21:50.223Z,92.50
2023-04-26T19:26:58.151Z,92.90
2023-04-26T19:32:06.609Z,93.40
2023-04-26T19:37:16.592Z,93.90
2023-04-26T19:42:20.549Z,94.40
2023-04-26T19:47:25.979Z,95.40
2023-04-26T19:52:33.541Z,96.10
2023-04-26T19:57:40.773Z,96.70
2023-04-26T20:02:45.713Z,97.30
2023-04-26T20:07:51.762Z,97.80
2023-04-26T20:12:57.913Z,97.80
2023-04-26T20:18:03.388Z,98.40
2023-04-26T20:23:08.752Z,99.10
2023-04-26T20:28:12.836Z,99.90
2023-04-26T20:33:19.274Z,99.90
2023-04-26T20:38:25.684Z,99.90
2023-04-26T20:43:29.644Z,99.90
2023-04-26T20:48:34.061Z,99.90
2023-04-26T20:53:38.129Z,99.90
2023-04-26T20:58:41.808Z,99.90
2023-04-26T21:03:45.329Z,99.90
2023-04-26T21:08:49.128Z,99.90
2023-04-26T21:13:54.503Z,99.90
2023-04-26T21:18:58.382Z,99.90
2023-04-26T21:24:03.523Z,99.90
2023-04-26T21:29:08.084Z,99.90
2023-04-26T21:34:12.199Z,99.90
2023-04-26T21:39:15.779Z,99.90
2023-04-26T21:44:19.076Z,99.90
2023-04-26T21:49:22.441Z,99.90
2023-04-26T21:54:25.660Z,99.90
2023-04-26T21:59:29.809Z,99.90
2023-04-26T22:04:33.241Z,99.90
2023-04-26T22:09:36.858Z,99.90
2023-04-26T22:14:40.088Z,99.90
2023-04-26T22:19:43.218Z,99.90
2023-04-26T22:24:46.950Z,99.90
2023-04-26T22:29:50.157Z,99.90
2023-04-26T22:34:53.335Z,99.90
2023-04-26T22:39:56.821Z,99.90
2023-04-26T22:44:59.991Z,99.90
2023-04-26T22:50:04.558Z,99.90
2023-04-26T22:55:08.364Z,99.90
2023-04-26T23:00:12.895Z,99.90
2023-04-26T23:05:16.625Z,99.90
2023-04-26T23:10:19.961Z,99.90
2023-04-26T23:15:24.058Z,99.90
2023-04-26T23:20:27.322Z,99.90
2023-04-26T23:25:30.367Z,99.90
2023-04-26T23:30:33.521Z,99.90
2023-04-26T23:35:41.550Z,99.90
2023-04-26T23:40:44.726Z,99.90
2023-04-26T23:45:48.166Z,99.90
2023-04-26T23:50:51.416Z,99.90
2023-04-26T23:55:54.849Z,99.90
